Terminal Aerodrome Forecast
Issued by NWS

Home | Current Version | Previous Version | Text Only | Print | Product List | Glossary On
Versions: 1 2 3 4 5 6 7 8 9 10 11 12 13 14 15
000
FTUS42 KTBW 271100
TAFPGD
TAF
KPGD 271132Z 2712/2812 06005KT P6SM OVC009
     FM271600 10004KT P6SM SCT015 OVC035
     FM272000 26006KT P6SM SCT035 BKN050
     FM280200 07003KT P6SM BKN050
     FM280900 VRB02KT 5SM BR SCT005 BKN010=

USA.gov is the U.S. government's official web portal to all federal, state and local government web resources and services.